This is the latest recevied weather packets stored in our database for station/object OK1JIL-13. If no packets are shown the sender has not sent any weather packets the latest 10 day(s).
| Time | Temp. | Humidity | Pressure | Rain* | Wind** | Luminosity | Snow |
|---|---|---|---|---|---|---|---|
| 1777174979 | 2.22° C | 61% | 1016.7 hPa | - | - | - | - |
| 1777174380 | 2.78° C | 60% | 1016.6 hPa | - | - | - | - |
| 1777173780 | 3.89° C | 57% | 1016.3 hPa | - | - | - | - |
| 1777173179 | 3.33° C | 57% | 1016.1 hPa | - | - | - | - |
| 1777172580 | 3.89° C | 54% | 1015.8 hPa | - | - | - | - |
| 1777171980 | 3.89° C | 54% | 1015.7 hPa | - | - | - | - |
| 1777171380 | 4.44° C | 53% | 1015.5 hPa | - | - | - | - |
| 1777170780 | 3.33° C | 55% | 1015.3 hPa | - | - | - | - |
| 1777170180 | 3.89° C | 53% | 1015.2 hPa | - | - | - | - |
| 1777169579 | 2.78° C | 56% | 1015 hPa | - | - | - | - |
| 1777168979 | 3.33° C | 54% | 1014.8 hPa | - | - | - | - |
| 1777168380 | 2.78° C | 57% | 1014.6 hPa | - | - | - | - |
| 1777167781 | 2.78° C | 58% | 1014.4 hPa | - | - | - | - |
| 1777167179 | 2.78° C | 57% | 1014.4 hPa | - | - | - | - |
| 1777166580 | 2.78° C | 57% | 1014.1 hPa | - | - | - | - |
| 1777165980 | 3.89° C | 55% | 1014 hPa | - | - | - | - |
| 1777165379 | 3.89° C | 57% | 1013.7 hPa | - | - | - | - |
| 1777164780 | 4.44° C | 56% | 1013.7 hPa | - | - | - | - |
| 1777164180 | 4.44° C | 57% | 1013.3 hPa | - | - | - | - |
| 1777163580 | 5° C | 57% | 1012.8 hPa | - | - | - | - |
| 1777162980 | 6.11° C | 57% | 1013.1 hPa | - | - | - | - |
| 1777162380 | 7.22° C | 54% | 1012.8 hPa | - | - | - | - |
| 1777161779 | 7.22° C | 56% | 1012.7 hPa | - | - | - | - |
| 1777161179 | 6.67° C | 57% | 1012.2 hPa | - | - | - | - |
| 1777160580 | 7.22° C | 56% | 1012 hPa | - | - | - | - |
* Rain since midnight (hover to see other rain measurements)
** Current wind speed in m/s (hover to see current wind gust speed)